sensor_id;sensor_type;location;lat;lon;timestamp;P1;durP1;ratioP1;P2;durP2;ratioP2
60038;SDS011;45916;52.734;6.544;2024-02-21T00:01:03;25.92;;;13.25;;
60038;SDS011;45916;52.734;6.544;2024-02-21T00:03:30;21.60;;;12.65;;
60038;SDS011;45916;52.734;6.544;2024-02-21T00:05:56;20.75;;;12.68;;
60038;SDS011;45916;52.734;6.544;2024-02-21T00:08:22;19.45;;;10.70;;
60038;SDS011;45916;52.734;6.544;2024-02-21T00:10:48;18.00;;;11.43;;
60038;SDS011;45916;52.734;6.544;2024-02-21T00:13:14;17.75;;;10.55;;
60038;SDS011;45916;52.734;6.544;2024-02-21T00:15:40;16.17;;;9.88;;
60038;SDS011;45916;52.734;6.544;2024-02-21T00:18:06;16.70;;;11.45;;
60038;SDS011;45916;52.734;6.544;2024-02-21T00:20:32;17.40;;;10.02;;
60038;SDS011;45916;52.734;6.544;2024-02-21T00:22:58;16.63;;;9.77;;
60038;SDS011;45916;52.734;6.544;2024-02-21T00:25:24;16.92;;;10.00;;
60038;SDS011;45916;52.734;6.544;2024-02-21T00:27:50;17.15;;;9.93;;
60038;SDS011;45916;52.734;6.544;2024-02-21T00:30:18;14.98;;;9.25;;
60038;SDS011;45916;52.734;6.544;2024-02-21T00:32:44;14.38;;;8.20;;
60038;SDS011;45916;52.734;6.544;2024-02-21T00:35:11;15.60;;;8.52;;
60038;SDS011;45916;52.734;6.544;2024-02-21T00:37:37;13.32;;;8.75;;
60038;SDS011;45916;52.734;6.544;2024-02-21T00:40:03;17.73;;;7.20;;
60038;SDS011;45916;52.734;6.544;2024-02-21T00:42:30;17.92;;;7.40;;
60038;SDS011;45916;52.734;6.544;2024-02-21T00:44:56;15.02;;;7.32;;
60038;SDS011;45916;52.734;6.544;2024-02-21T00:47:22;16.42;;;7.68;;
60038;SDS011;45916;52.734;6.544;2024-02-21T00:49:48;16.38;;;7.63;;
60038;SDS011;45916;52.734;6.544;2024-02-21T00:52:14;15.02;;;8.20;;
60038;SDS011;45916;52.734;6.544;2024-02-21T00:54:40;13.70;;;7.57;;
60038;SDS011;45916;52.734;6.544;2024-02-21T00:57:06;16.48;;;7.35;;
60038;SDS011;45916;52.734;6.544;2024-02-21T00:59:32;16.58;;;7.05;;
60038;SDS011;45916;52.734;6.544;2024-02-21T01:01:58;13.02;;;7.07;;
60038;SDS011;45916;52.734;6.544;2024-02-21T01:04:24;14.23;;;7.22;;
60038;SDS011;45916;52.734;6.544;2024-02-21T01:06:50;12.52;;;6.22;;
60038;SDS011;45916;52.734;6.544;2024-02-21T01:09:16;13.68;;;7.13;;
60038;SDS011;45916;52.734;6.544;2024-02-21T01:11:42;15.60;;;7.20;;
60038;SDS011;45916;52.734;6.544;2024-02-21T01:14:08;19.42;;;7.75;;
60038;SDS011;45916;52.734;6.544;2024-02-21T01:16:36;15.70;;;7.65;;
60038;SDS011;45916;52.734;6.544;2024-02-21T01:19:02;14.57;;;7.40;;
60038;SDS011;45916;52.734;6.544;2024-02-21T01:21:28;20.42;;;7.47;;
60038;SDS011;45916;52.734;6.544;2024-02-21T01:23:54;15.43;;;7.70;;
60038;SDS011;45916;52.734;6.544;2024-02-21T01:26:20;18.40;;;7.93;;
60038;SDS011;45916;52.734;6.544;2024-02-21T01:28:46;15.10;;;8.55;;
60038;SDS011;45916;52.734;6.544;2024-02-21T01:31:12;16.38;;;7.57;;
60038;SDS011;45916;52.734;6.544;2024-02-21T01:33:40;18.52;;;7.25;;
60038;SDS011;45916;52.734;6.544;2024-02-21T01:36:06;16.75;;;7.45;;
60038;SDS011;45916;52.734;6.544;2024-02-21T01:38:32;16.75;;;7.82;;
60038;SDS011;45916;52.734;6.544;2024-02-21T01:40:58;17.98;;;8.00;;
60038;SDS011;45916;52.734;6.544;2024-02-21T01:43:24;20.08;;;7.95;;
60038;SDS011;45916;52.734;6.544;2024-02-21T01:45:54;21.05;;;8.48;;
60038;SDS011;45916;52.734;6.544;2024-02-21T01:48:24;17.60;;;7.53;;
60038;SDS011;45916;52.734;6.544;2024-02-21T01:50:50;17.52;;;7.40;;
60038;SDS011;45916;52.734;6.544;2024-02-21T01:53:18;20.80;;;8.82;;
60038;SDS011;45916;52.734;6.544;2024-02-21T01:55:45;15.10;;;8.38;;
60038;SDS011;45916;52.734;6.544;2024-02-21T01:58:12;18.33;;;8.65;;
60038;SDS011;45916;52.734;6.544;2024-02-21T02:00:40;16.33;;;8.50;;
60038;SDS011;45916;52.734;6.544;2024-02-21T02:03:07;16.55;;;7.80;;
60038;SDS011;45916;52.734;6.544;2024-02-21T02:05:35;17.20;;;9.07;;
60038;SDS011;45916;52.734;6.544;2024-02-21T02:08:01;18.20;;;8.60;;
60038;SDS011;45916;52.734;6.544;2024-02-21T02:10:27;14.95;;;9.05;;
60038;SDS011;45916;52.734;6.544;2024-02-21T02:12:54;16.48;;;8.45;;
60038;SDS011;45916;52.734;6.544;2024-02-21T02:15:20;20.63;;;10.13;;
60038;SDS011;45916;52.734;6.544;2024-02-21T02:17:46;17.73;;;9.48;;
60038;SDS011;45916;52.734;6.544;2024-02-21T02:20:12;18.20;;;10.35;;
60038;SDS011;45916;52.734;6.544;2024-02-21T02:22:38;18.98;;;10.63;;
60038;SDS011;45916;52.734;6.544;2024-02-21T02:25:05;19.02;;;10.70;;
60038;SDS011;45916;52.734;6.544;2024-02-21T02:27:31;20.27;;;11.45;;
60038;SDS011;45916;52.734;6.544;2024-02-21T02:29:57;23.13;;;11.77;;
60038;SDS011;45916;52.734;6.544;2024-02-21T02:32:23;19.73;;;10.52;;
60038;SDS011;45916;52.734;6.544;2024-02-21T02:34:49;22.85;;;11.20;;
60038;SDS011;45916;52.734;6.544;2024-02-21T02:37:15;25.08;;;12.13;;
60038;SDS011;45916;52.734;6.544;2024-02-21T02:39:41;19.80;;;12.25;;
60038;SDS011;45916;52.734;6.544;2024-02-21T02:42:07;27.10;;;12.77;;
60038;SDS011;45916;52.734;6.544;2024-02-21T02:44:33;20.65;;;11.32;;
60038;SDS011;45916;52.734;6.544;2024-02-21T02:46:59;24.20;;;13.13;;
60038;SDS011;45916;52.734;6.544;2024-02-21T02:49:25;22.38;;;13.82;;
60038;SDS011;45916;52.734;6.544;2024-02-21T02:51:51;22.48;;;12.25;;
60038;SDS011;45916;52.734;6.544;2024-02-21T02:54:17;18.10;;;12.93;;
60038;SDS011;45916;52.734;6.544;2024-02-21T02:56:43;26.55;;;12.90;;
60038;SDS011;45916;52.734;6.544;2024-02-21T02:59:09;29.63;;;14.60;;
60038;SDS011;45916;52.734;6.544;2024-02-21T03:01:35;24.58;;;14.07;;
60038;SDS011;45916;52.734;6.544;2024-02-21T03:04:03;24.73;;;13.68;;
60038;SDS011;45916;52.734;6.544;2024-02-21T03:06:29;23.83;;;13.15;;
60038;SDS011;45916;52.734;6.544;2024-02-21T03:08:55;23.13;;;11.60;;
60038;SDS011;45916;52.734;6.544;2024-02-21T03:11:21;25.25;;;13.60;;
60038;SDS011;45916;52.734;6.544;2024-02-21T03:13:54;26.52;;;14.45;;
60038;SDS011;45916;52.734;6.544;2024-02-21T03:16:20;27.38;;;14.25;;
60038;SDS011;45916;52.734;6.544;2024-02-21T03:18:46;24.63;;;13.32;;
60038;SDS011;45916;52.734;6.544;2024-02-21T03:21:13;25.92;;;13.48;;
60038;SDS011;45916;52.734;6.544;2024-02-21T03:23:39;26.50;;;14.30;;
60038;SDS011;45916;52.734;6.544;2024-02-21T03:26:05;24.70;;;14.05;;
60038;SDS011;45916;52.734;6.544;2024-02-21T03:28:32;20.67;;;12.55;;
60038;SDS011;45916;52.734;6.544;2024-02-21T03:30:58;28.92;;;15.05;;
60038;SDS011;45916;52.734;6.544;2024-02-21T03:33:24;24.83;;;13.77;;
60038;SDS011;45916;52.734;6.544;2024-02-21T03:35:50;29.15;;;13.70;;
60038;SDS011;45916;52.734;6.544;2024-02-21T03:38:17;23.67;;;13.88;;
60038;SDS011;45916;52.734;6.544;2024-02-21T03:40:43;25.27;;;14.38;;
60038;SDS011;45916;52.734;6.544;2024-02-21T03:43:09;27.08;;;14.52;;
60038;SDS011;45916;52.734;6.544;2024-02-21T03:45:35;26.33;;;14.20;;
60038;SDS011;45916;52.734;6.544;2024-02-21T03:48:01;27.80;;;14.65;;
60038;SDS011;45916;52.734;6.544;2024-02-21T03:50:27;24.27;;;13.75;;
60038;SDS011;45916;52.734;6.544;2024-02-21T03:52:53;27.60;;;14.63;;
60038;SDS011;45916;52.734;6.544;2024-02-21T03:55:19;26.63;;;14.68;;
60038;SDS011;45916;52.734;6.544;2024-02-21T03:57:46;25.40;;;13.98;;
60038;SDS011;45916;52.734;6.544;2024-02-21T04:00:13;26.58;;;13.85;;
60038;SDS011;45916;52.734;6.544;2024-02-21T04:02:39;26.20;;;14.13;;
60038;SDS011;45916;52.734;6.544;2024-02-21T04:05:05;27.58;;;13.30;;
60038;SDS011;45916;52.734;6.544;2024-02-21T04:07:34;26.67;;;13.30;;
60038;SDS011;45916;52.734;6.544;2024-02-21T04:10:00;24.38;;;12.80;;
60038;SDS011;45916;52.734;6.544;2024-02-21T04:12:26;21.98;;;13.10;;
60038;SDS011;45916;52.734;6.544;2024-02-21T04:14:52;25.33;;;13.73;;
60038;SDS011;45916;52.734;6.544;2024-02-21T04:17:18;27.50;;;13.93;;
60038;SDS011;45916;52.734;6.544;2024-02-21T04:19:44;34.25;;;13.85;;
60038;SDS011;45916;52.734;6.544;2024-02-21T04:22:10;29.17;;;13.70;;
60038;SDS011;45916;52.734;6.544;2024-02-21T04:24:36;34.70;;;14.57;;
60038;SDS011;45916;52.734;6.544;2024-02-21T04:27:02;31.58;;;14.05;;
60038;SDS011;45916;52.734;6.544;2024-02-21T04:29:28;25.02;;;12.25;;
60038;SDS011;45916;52.734;6.544;2024-02-21T04:31:54;25.02;;;12.88;;
60038;SDS011;45916;52.734;6.544;2024-02-21T04:34:20;23.65;;;14.13;;
60038;SDS011;45916;52.734;6.544;2024-02-21T04:36:50;24.35;;;13.27;;
60038;SDS011;45916;52.734;6.544;2024-02-21T04:39:16;26.02;;;13.27;;
60038;SDS011;45916;52.734;6.544;2024-02-21T04:41:42;20.13;;;12.65;;
60038;SDS011;45916;52.734;6.544;2024-02-21T04:44:09;27.90;;;12.43;;
60038;SDS011;45916;52.734;6.544;2024-02-21T04:46:35;26.58;;;13.25;;
60038;SDS011;45916;52.734;6.544;2024-02-21T04:49:01;24.70;;;10.50;;
60038;SDS011;45916;52.734;6.544;2024-02-21T04:51:27;25.02;;;12.82;;
60038;SDS011;45916;52.734;6.544;2024-02-21T04:53:53;29.02;;;13.82;;
60038;SDS011;45916;52.734;6.544;2024-02-21T04:56:19;30.45;;;13.20;;
60038;SDS011;45916;52.734;6.544;2024-02-21T04:58:45;23.30;;;12.77;;
60038;SDS011;45916;52.734;6.544;2024-02-21T05:01:11;21.38;;;12.93;;
60038;SDS011;45916;52.734;6.544;2024-02-21T05:03:38;26.25;;;12.52;;
60038;SDS011;45916;52.734;6.544;2024-02-21T05:06:04;30.30;;;13.23;;
60038;SDS011;45916;52.734;6.544;2024-02-21T05:08:30;24.85;;;13.15;;
60038;SDS011;45916;52.734;6.544;2024-02-21T05:10:56;25.88;;;13.02;;
60038;SDS011;45916;52.734;6.544;2024-02-21T05:13:22;21.88;;;12.60;;
60038;SDS011;45916;52.734;6.544;2024-02-21T05:15:48;18.55;;;11.27;;
60038;SDS011;45916;52.734;6.544;2024-02-21T05:18:14;24.45;;;12.90;;
60038;SDS011;45916;52.734;6.544;2024-02-21T05:20:40;25.33;;;13.90;;
60038;SDS011;45916;52.734;6.544;2024-02-21T05:23:06;22.75;;;11.65;;
60038;SDS011;45916;52.734;6.544;2024-02-21T05:25:32;31.83;;;12.77;;
60038;SDS011;45916;52.734;6.544;2024-02-21T05:27:58;26.75;;;12.70;;
60038;SDS011;45916;52.734;6.544;2024-02-21T05:30:27;26.30;;;12.45;;
60038;SDS011;45916;52.734;6.544;2024-02-21T05:32:53;24.23;;;12.60;;
60038;SDS011;45916;52.734;6.544;2024-02-21T05:35:19;23.20;;;12.38;;
60038;SDS011;45916;52.734;6.544;2024-02-21T05:37:46;24.83;;;11.63;;
60038;SDS011;45916;52.734;6.544;2024-02-21T05:40:17;25.35;;;11.75;;
60038;SDS011;45916;52.734;6.544;2024-02-21T05:42:43;20.48;;;11.70;;
60038;SDS011;45916;52.734;6.544;2024-02-21T05:45:09;23.50;;;12.43;;
60038;SDS011;45916;52.734;6.544;2024-02-21T05:47:36;21.15;;;12.10;;
60038;SDS011;45916;52.734;6.544;2024-02-21T05:50:02;25.83;;;11.48;;
60038;SDS011;45916;52.734;6.544;2024-02-21T05:52:28;21.20;;;11.63;;
60038;SDS011;45916;52.734;6.544;2024-02-21T05:54:54;20.80;;;12.60;;
60038;SDS011;45916;52.734;6.544;2024-02-21T05:57:20;20.08;;;11.55;;
60038;SDS011;45916;52.734;6.544;2024-02-21T05:59:46;26.95;;;12.02;;
60038;SDS011;45916;52.734;6.544;2024-02-21T06:02:12;25.98;;;13.15;;
60038;SDS011;45916;52.734;6.544;2024-02-21T06:04:38;23.13;;;12.77;;
60038;SDS011;45916;52.734;6.544;2024-02-21T06:07:07;20.35;;;11.52;;
60038;SDS011;45916;52.734;6.544;2024-02-21T06:09:34;24.92;;;14.10;;
60038;SDS011;45916;52.734;6.544;2024-02-21T06:12:00;23.25;;;14.40;;
60038;SDS011;45916;52.734;6.544;2024-02-21T06:14:26;25.27;;;15.23;;
60038;SDS011;45916;52.734;6.544;2024-02-21T06:16:52;27.70;;;16.15;;
60038;SDS011;45916;52.734;6.544;2024-02-21T06:19:18;29.85;;;17.45;;
60038;SDS011;45916;52.734;6.544;2024-02-21T06:21:44;27.77;;;17.40;;
60038;SDS011;45916;52.734;6.544;2024-02-21T06:24:10;32.55;;;18.77;;
60038;SDS011;45916;52.734;6.544;2024-02-21T06:26:37;25.88;;;17.48;;
60038;SDS011;45916;52.734;6.544;2024-02-21T06:29:03;30.55;;;16.95;;
60038;SDS011;45916;52.734;6.544;2024-02-21T06:31:29;25.48;;;17.98;;
60038;SDS011;45916;52.734;6.544;2024-02-21T06:33:56;25.50;;;17.10;;
60038;SDS011;45916;52.734;6.544;2024-02-21T06:36:23;29.08;;;17.92;;
60038;SDS011;45916;52.734;6.544;2024-02-21T06:38:49;31.50;;;17.33;;
60038;SDS011;45916;52.734;6.544;2024-02-21T06:41:15;30.58;;;17.65;;
60038;SDS011;45916;52.734;6.544;2024-02-21T06:43:42;30.55;;;17.33;;
60038;SDS011;45916;52.734;6.544;2024-02-21T06:46:08;29.23;;;17.17;;
60038;SDS011;45916;52.734;6.544;2024-02-21T06:48:34;35.13;;;16.90;;
60038;SDS011;45916;52.734;6.544;2024-02-21T06:51:00;31.20;;;17.23;;
60038;SDS011;45916;52.734;6.544;2024-02-21T06:53:26;29.38;;;18.08;;
60038;SDS011;45916;52.734;6.544;2024-02-21T06:55:52;28.45;;;18.05;;
60038;SDS011;45916;52.734;6.544;2024-02-21T06:58:18;31.13;;;19.02;;
60038;SDS011;45916;52.734;6.544;2024-02-21T07:00:44;25.58;;;17.88;;
60038;SDS011;45916;52.734;6.544;2024-02-21T07:03:10;36.45;;;18.95;;
60038;SDS011;45916;52.734;6.544;2024-02-21T07:05:36;29.15;;;18.40;;
60038;SDS011;45916;52.734;6.544;2024-02-21T07:08:02;28.65;;;18.65;;
60038;SDS011;45916;52.734;6.544;2024-02-21T07:10:28;30.20;;;17.83;;
60038;SDS011;45916;52.734;6.544;2024-02-21T07:12:55;29.60;;;17.63;;
60038;SDS011;45916;52.734;6.544;2024-02-21T07:15:21;35.33;;;18.05;;
60038;SDS011;45916;52.734;6.544;2024-02-21T07:17:47;28.45;;;18.25;;
60038;SDS011;45916;52.734;6.544;2024-02-21T07:20:13;28.75;;;18.35;;
60038;SDS011;45916;52.734;6.544;2024-02-21T07:22:39;31.40;;;19.25;;
60038;SDS011;45916;52.734;6.544;2024-02-21T07:25:05;34.05;;;18.13;;
60038;SDS011;45916;52.734;6.544;2024-02-21T07:27:31;31.80;;;18.15;;
60038;SDS011;45916;52.734;6.544;2024-02-21T07:29:58;26.25;;;17.27;;
60038;SDS011;45916;52.734;6.544;2024-02-21T07:32:24;26.55;;;17.75;;
60038;SDS011;45916;52.734;6.544;2024-02-21T07:34:50;28.85;;;17.80;;
60038;SDS011;45916;52.734;6.544;2024-02-21T07:37:16;27.05;;;17.08;;
60038;SDS011;45916;52.734;6.544;2024-02-21T07:39:42;26.05;;;18.23;;
60038;SDS011;45916;52.734;6.544;2024-02-21T07:42:08;24.33;;;16.85;;
60038;SDS011;45916;52.734;6.544;2024-02-21T07:44:34;25.73;;;17.95;;
60038;SDS011;45916;52.734;6.544;2024-02-21T07:47:00;32.15;;;18.10;;
60038;SDS011;45916;52.734;6.544;2024-02-21T07:49:26;25.38;;;17.42;;
60038;SDS011;45916;52.734;6.544;2024-02-21T07:51:53;25.88;;;17.90;;
60038;SDS011;45916;52.734;6.544;2024-02-21T07:54:19;27.42;;;18.10;;
60038;SDS011;45916;52.734;6.544;2024-02-21T07:56:45;31.23;;;20.50;;
60038;SDS011;45916;52.734;6.544;2024-02-21T07:59:12;26.47;;;17.37;;
60038;SDS011;45916;52.734;6.544;2024-02-21T08:01:39;30.05;;;20.13;;
60038;SDS011;45916;52.734;6.544;2024-02-21T08:04:05;30.90;;;20.70;;
60038;SDS011;45916;52.734;6.544;2024-02-21T08:06:31;33.03;;;21.52;;
60038;SDS011;45916;52.734;6.544;2024-02-21T08:08:57;30.83;;;23.30;;
60038;SDS011;45916;52.734;6.544;2024-02-21T08:11:25;31.90;;;22.20;;
60038;SDS011;45916;52.734;6.544;2024-02-21T08:13:51;30.88;;;22.27;;
60038;SDS011;45916;52.734;6.544;2024-02-21T08:16:17;31.50;;;21.27;;
60038;SDS011;45916;52.734;6.544;2024-02-21T08:18:44;31.83;;;22.48;;
60038;SDS011;45916;52.734;6.544;2024-02-21T08:21:10;34.05;;;21.98;;
60038;SDS011;45916;52.734;6.544;2024-02-21T08:23:36;31.00;;;21.98;;
60038;SDS011;45916;52.734;6.544;2024-02-21T08:26:05;28.15;;;20.92;;
60038;SDS011;45916;52.734;6.544;2024-02-21T08:28:31;32.50;;;21.30;;
60038;SDS011;45916;52.734;6.544;2024-02-21T08:30:57;34.67;;;23.27;;
60038;SDS011;45916;52.734;6.544;2024-02-21T08:33:23;32.00;;;21.90;;
60038;SDS011;45916;52.734;6.544;2024-02-21T08:35:50;33.40;;;23.98;;
60038;SDS011;45916;52.734;6.544;2024-02-21T08:38:16;32.53;;;22.63;;
60038;SDS011;45916;52.734;6.544;2024-02-21T08:40:43;32.15;;;21.35;;
60038;SDS011;45916;52.734;6.544;2024-02-21T08:43:09;33.13;;;23.55;;
60038;SDS011;45916;52.734;6.544;2024-02-21T08:45:36;31.27;;;22.65;;
60038;SDS011;45916;52.734;6.544;2024-02-21T08:48:03;30.27;;;22.52;;
60038;SDS011;45916;52.734;6.544;2024-02-21T08:50:29;34.47;;;22.65;;
60038;SDS011;45916;52.734;6.544;2024-02-21T08:52:55;33.03;;;21.92;;
60038;SDS011;45916;52.734;6.544;2024-02-21T08:55:21;30.08;;;22.45;;
60038;SDS011;45916;52.734;6.544;2024-02-21T08:57:47;29.23;;;20.15;;
60038;SDS011;45916;52.734;6.544;2024-02-21T09:00:14;39.13;;;25.25;;
60038;SDS011;45916;52.734;6.544;2024-02-21T09:03:01;34.08;;;21.83;;
60038;SDS011;45916;52.734;6.544;2024-02-21T09:05:29;31.70;;;21.90;;
60038;SDS011;45916;52.734;6.544;2024-02-21T09:08:00;30.98;;;22.58;;
60038;SDS011;45916;52.734;6.544;2024-02-21T09:10:27;30.67;;;22.42;;
60038;SDS011;45916;52.734;6.544;2024-02-21T09:12:53;34.40;;;23.77;;
60038;SDS011;45916;52.734;6.544;2024-02-21T09:15:19;37.45;;;23.45;;
60038;SDS011;45916;52.734;6.544;2024-02-21T09:17:45;34.00;;;25.50;;
60038;SDS011;45916;52.734;6.544;2024-02-21T09:20:11;30.75;;;23.38;;
60038;SDS011;45916;52.734;6.544;2024-02-21T09:22:48;33.13;;;23.13;;
60038;SDS011;45916;52.734;6.544;2024-02-21T09:25:14;29.23;;;23.65;;
60038;SDS011;45916;52.734;6.544;2024-02-21T09:27:40;32.78;;;23.55;;
60038;SDS011;45916;52.734;6.544;2024-02-21T09:30:06;29.58;;;21.17;;
60038;SDS011;45916;52.734;6.544;2024-02-21T09:32:33;31.73;;;23.77;;
60038;SDS011;45916;52.734;6.544;2024-02-21T09:34:59;31.55;;;22.08;;
60038;SDS011;45916;52.734;6.544;2024-02-21T09:37:25;31.38;;;23.70;;
60038;SDS011;45916;52.734;6.544;2024-02-21T09:39:51;30.13;;;21.15;;
60038;SDS011;45916;52.734;6.544;2024-02-21T09:42:19;30.50;;;21.05;;
60038;SDS011;45916;52.734;6.544;2024-02-21T09:44:46;26.45;;;20.15;;
60038;SDS011;45916;52.734;6.544;2024-02-21T09:47:24;31.17;;;22.13;;
60038;SDS011;45916;52.734;6.544;2024-02-21T09:49:50;28.55;;;21.73;;
60038;SDS011;45916;52.734;6.544;2024-02-21T09:52:17;25.00;;;20.00;;
60038;SDS011;45916;52.734;6.544;2024-02-21T09:54:45;26.50;;;19.27;;
60038;SDS011;45916;52.734;6.544;2024-02-21T09:57:11;24.63;;;18.67;;
60038;SDS011;45916;52.734;6.544;2024-02-21T09:59:39;30.63;;;19.50;;
60038;SDS011;45916;52.734;6.544;2024-02-21T10:02:06;22.45;;;18.13;;
60038;SDS011;45916;52.734;6.544;2024-02-21T10:04:33;24.40;;;17.15;;
60038;SDS011;45916;52.734;6.544;2024-02-21T10:06:59;27.55;;;18.00;;
60038;SDS011;45916;52.734;6.544;2024-02-21T10:09:26;26.38;;;15.98;;
60038;SDS011;45916;52.734;6.544;2024-02-21T10:11:55;30.73;;;18.58;;
60038;SDS011;45916;52.734;6.544;2024-02-21T10:14:21;25.13;;;15.85;;
60038;SDS011;45916;52.734;6.544;2024-02-21T10:16:48;24.75;;;17.15;;
60038;SDS011;45916;52.734;6.544;2024-02-21T10:19:18;20.83;;;14.48;;
60038;SDS011;45916;52.734;6.544;2024-02-21T10:21:57;21.85;;;15.77;;
60038;SDS011;45916;52.734;6.544;2024-02-21T10:24:27;22.33;;;16.13;;
60038;SDS011;45916;52.734;6.544;2024-02-21T10:27:01;19.92;;;15.57;;
60038;SDS011;45916;52.734;6.544;2024-02-21T10:29:28;24.58;;;16.23;;
60038;SDS011;45916;52.734;6.544;2024-02-21T10:32:03;23.13;;;13.85;;
60038;SDS011;45916;52.734;6.544;2024-02-21T10:34:30;27.33;;;16.55;;
60038;SDS011;45916;52.734;6.544;2024-02-21T10:37:00;21.48;;;15.00;;
60038;SDS011;45916;52.734;6.544;2024-02-21T10:39:27;21.52;;;16.77;;
60038;SDS011;45916;52.734;6.544;2024-02-21T10:41:53;20.95;;;13.80;;
60038;SDS011;45916;52.734;6.544;2024-02-21T10:44:20;21.55;;;14.48;;
60038;SDS011;45916;52.734;6.544;2024-02-21T10:46:47;23.42;;;15.13;;
60038;SDS011;45916;52.734;6.544;2024-02-21T10:49:16;19.85;;;14.88;;
60038;SDS011;45916;52.734;6.544;2024-02-21T10:51:45;20.52;;;14.68;;
60038;SDS011;45916;52.734;6.544;2024-02-21T10:56:56;18.45;;;13.00;;
60038;SDS011;45916;52.734;6.544;2024-02-21T10:59:22;22.30;;;14.38;;
60038;SDS011;45916;52.734;6.544;2024-02-21T11:01:48;19.85;;;13.05;;
60038;SDS011;45916;52.734;6.544;2024-02-21T11:04:14;17.00;;;12.77;;
60038;SDS011;45916;52.734;6.544;2024-02-21T11:06:41;22.10;;;13.98;;
60038;SDS011;45916;52.734;6.544;2024-02-21T11:09:08;18.25;;;14.35;;
60038;SDS011;45916;52.734;6.544;2024-02-21T11:11:38;17.42;;;11.85;;
60038;SDS011;45916;52.734;6.544;2024-02-21T11:14:08;18.80;;;13.82;;
60038;SDS011;45916;52.734;6.544;2024-02-21T11:16:35;22.67;;;14.45;;
60038;SDS011;45916;52.734;6.544;2024-02-21T11:19:21;18.95;;;12.82;;
60038;SDS011;45916;52.734;6.544;2024-02-21T11:21:48;20.52;;;12.93;;
60038;SDS011;45916;52.734;6.544;2024-02-21T11:24:27;19.20;;;12.38;;
60038;SDS011;45916;52.734;6.544;2024-02-21T11:26:54;19.52;;;13.48;;
60038;SDS011;45916;52.734;6.544;2024-02-21T11:29:24;18.88;;;14.10;;
60038;SDS011;45916;52.734;6.544;2024-02-21T11:31:51;21.25;;;14.10;;
60038;SDS011;45916;52.734;6.544;2024-02-21T11:34:18;20.90;;;15.10;;
60038;SDS011;45916;52.734;6.544;2024-02-21T11:36:48;23.17;;;14.02;;
60038;SDS011;45916;52.734;6.544;2024-02-21T11:39:22;22.60;;;14.55;;
60038;SDS011;45916;52.734;6.544;2024-02-21T11:42:01;16.77;;;13.30;;
60038;SDS011;45916;52.734;6.544;2024-02-21T11:44:28;19.00;;;13.02;;
60038;SDS011;45916;52.734;6.544;2024-02-21T11:46:54;21.95;;;14.68;;
60038;SDS011;45916;52.734;6.544;2024-02-21T11:49:20;19.00;;;13.40;;
60038;SDS011;45916;52.734;6.544;2024-02-21T11:51:46;19.02;;;12.75;;
60038;SDS011;45916;52.734;6.544;2024-02-21T11:54:13;15.73;;;12.02;;
60038;SDS011;45916;52.734;6.544;2024-02-21T11:56:42;16.50;;;10.30;;
60038;SDS011;45916;52.734;6.544;2024-02-21T11:59:08;14.52;;;10.80;;
60038;SDS011;45916;52.734;6.544;2024-02-21T12:01:34;18.17;;;12.43;;
60038;SDS011;45916;52.734;6.544;2024-02-21T12:04:00;14.52;;;11.30;;
60038;SDS011;45916;52.734;6.544;2024-02-21T12:06:27;16.83;;;11.50;;
60038;SDS011;45916;52.734;6.544;2024-02-21T12:08:57;13.02;;;10.02;;
60038;SDS011;45916;52.734;6.544;2024-02-21T12:11:24;15.40;;;11.20;;
60038;SDS011;45916;52.734;6.544;2024-02-21T12:14:03;14.18;;;9.60;;
60038;SDS011;45916;52.734;6.544;2024-02-21T12:16:33;13.70;;;10.07;;
60038;SDS011;45916;52.734;6.544;2024-02-21T12:19:00;15.32;;;9.90;;
60038;SDS011;45916;52.734;6.544;2024-02-21T12:21:26;16.70;;;9.40;;
60038;SDS011;45916;52.734;6.544;2024-02-21T12:23:56;11.70;;;8.43;;
60038;SDS011;45916;52.734;6.544;2024-02-21T12:26:22;12.20;;;8.98;;
60038;SDS011;45916;52.734;6.544;2024-02-21T12:28:49;14.95;;;8.98;;
60038;SDS011;45916;52.734;6.544;2024-02-21T12:31:15;15.55;;;9.85;;
60038;SDS011;45916;52.734;6.544;2024-02-21T12:33:41;10.82;;;7.68;;
60038;SDS011;45916;52.734;6.544;2024-02-21T12:36:07;12.65;;;7.95;;
60038;SDS011;45916;52.734;6.544;2024-02-21T12:38:34;11.80;;;6.88;;
60038;SDS011;45916;52.734;6.544;2024-02-21T12:41:00;10.77;;;7.82;;
60038;SDS011;45916;52.734;6.544;2024-02-21T12:43:26;10.95;;;7.22;;
60038;SDS011;45916;52.734;6.544;2024-02-21T12:45:55;10.32;;;6.53;;
60038;SDS011;45916;52.734;6.544;2024-02-21T12:48:21;9.25;;;6.35;;
60038;SDS011;45916;52.734;6.544;2024-02-21T12:50:48;8.43;;;6.30;;
60038;SDS011;45916;52.734;6.544;2024-02-21T12:55:42;10.80;;;6.90;;
60038;SDS011;45916;52.734;6.544;2024-02-21T12:58:08;11.98;;;6.72;;
60038;SDS011;45916;52.734;6.544;2024-02-21T13:00:34;9.48;;;5.90;;
60038;SDS011;45916;52.734;6.544;2024-02-21T13:03:00;11.85;;;7.05;;
60038;SDS011;45916;52.734;6.544;2024-02-21T13:05:27;11.02;;;7.95;;
60038;SDS011;45916;52.734;6.544;2024-02-21T13:07:54;11.25;;;7.78;;
60038;SDS011;45916;52.734;6.544;2024-02-21T13:10:20;10.57;;;6.60;;
60038;SDS011;45916;52.734;6.544;2024-02-21T13:12:46;11.90;;;7.82;;
60038;SDS011;45916;52.734;6.544;2024-02-21T13:15:12;13.13;;;8.65;;
60038;SDS011;45916;52.734;6.544;2024-02-21T13:20:07;12.50;;;9.18;;
60038;SDS011;45916;52.734;6.544;2024-02-21T13:22:33;13.07;;;9.15;;
60038;SDS011;45916;52.734;6.544;2024-02-21T13:25:00;14.15;;;9.88;;
60038;SDS011;45916;52.734;6.544;2024-02-21T13:27:26;15.48;;;9.20;;
60038;SDS011;45916;52.734;6.544;2024-02-21T13:29:52;11.82;;;9.15;;
60038;SDS011;45916;52.734;6.544;2024-02-21T13:32:18;12.00;;;7.70;;
60038;SDS011;45916;52.734;6.544;2024-02-21T13:34:44;13.88;;;9.35;;
60038;SDS011;45916;52.734;6.544;2024-02-21T13:37:10;11.93;;;8.75;;
60038;SDS011;45916;52.734;6.544;2024-02-21T13:39:37;15.90;;;8.93;;
60038;SDS011;45916;52.734;6.544;2024-02-21T13:42:03;11.63;;;8.55;;
60038;SDS011;45916;52.734;6.544;2024-02-21T13:44:31;13.30;;;9.50;;
60038;SDS011;45916;52.734;6.544;2024-02-21T13:46:57;11.93;;;9.02;;
60038;SDS011;45916;52.734;6.544;2024-02-21T13:49:23;13.23;;;9.38;;
60038;SDS011;45916;52.734;6.544;2024-02-21T13:51:49;13.73;;;8.55;;
60038;SDS011;45916;52.734;6.544;2024-02-21T13:54:15;11.93;;;8.00;;
60038;SDS011;45916;52.734;6.544;2024-02-21T13:56:44;11.63;;;8.27;;
60038;SDS011;45916;52.734;6.544;2024-02-21T13:59:11;13.75;;;9.35;;
60038;SDS011;45916;52.734;6.544;2024-02-21T14:01:41;14.02;;;9.20;;
60038;SDS011;45916;52.734;6.544;2024-02-21T14:04:08;12.95;;;9.23;;
60038;SDS011;45916;52.734;6.544;2024-02-21T14:06:34;12.30;;;9.48;;
60038;SDS011;45916;52.734;6.544;2024-02-21T14:09:00;14.02;;;9.15;;
60038;SDS011;45916;52.734;6.544;2024-02-21T14:11:26;12.48;;;9.98;;
60038;SDS011;45916;52.734;6.544;2024-02-21T14:13:53;12.98;;;9.07;;
60038;SDS011;45916;52.734;6.544;2024-02-21T14:16:22;15.27;;;9.70;;
60038;SDS011;45916;52.734;6.544;2024-02-21T14:18:48;13.70;;;10.60;;
60038;SDS011;45916;52.734;6.544;2024-02-21T14:21:14;14.98;;;10.65;;
60038;SDS011;45916;52.734;6.544;2024-02-21T14:23:40;13.15;;;9.65;;
60038;SDS011;45916;52.734;6.544;2024-02-21T14:26:06;15.05;;;9.25;;
60038;SDS011;45916;52.734;6.544;2024-02-21T14:28:32;16.08;;;9.93;;
60038;SDS011;45916;52.734;6.544;2024-02-21T14:30:59;12.25;;;8.68;;